sensor_id;sensor_type;location;lat;lon;timestamp;pressure;altitude;pressure_sealevel;temperature;humidity
9421;BME280;4749;51.398;5.466;2024-03-25T00:01:45;100653.38;;;4.64;100.00
9421;BME280;4749;51.398;5.466;2024-03-25T00:04:11;100650.69;;;4.61;100.00
9421;BME280;4749;51.398;5.466;2024-03-25T00:06:37;100643.69;;;4.58;100.00
9421;BME280;4749;51.398;5.466;2024-03-25T00:09:04;100652.31;;;4.56;100.00
9421;BME280;4749;51.398;5.466;2024-03-25T00:11:33;100652.22;;;4.52;100.00
9421;BME280;4749;51.398;5.466;2024-03-25T00:14:00;100647.84;;;4.50;100.00
9421;BME280;4749;51.398;5.466;2024-03-25T00:16:27;100643.44;;;4.47;100.00
9421;BME280;4749;51.398;5.466;2024-03-25T00:18:53;100649.41;;;4.43;100.00
9421;BME280;4749;51.398;5.466;2024-03-25T00:21:19;100651.09;;;4.41;100.00
9421;BME280;4749;51.398;5.466;2024-03-25T00:23:45;100652.69;;;4.36;100.00
9421;BME280;4749;51.398;5.466;2024-03-25T00:26:11;100649.22;;;4.36;100.00
9421;BME280;4749;51.398;5.466;2024-03-25T00:28:38;100646.53;;;4.31;100.00
9421;BME280;4749;51.398;5.466;2024-03-25T00:31:04;100641.22;;;4.28;100.00
9421;BME280;4749;51.398;5.466;2024-03-25T00:33:31;100649.84;;;4.26;100.00
9421;BME280;4749;51.398;5.466;2024-03-25T00:35:57;100640.25;;;4.23;100.00
9421;BME280;4749;51.398;5.466;2024-03-25T00:38:23;100645.34;;;4.20;100.00
9421;BME280;4749;51.398;5.466;2024-03-25T00:40:50;100646.13;;;4.16;100.00
9421;BME280;4749;51.398;5.466;2024-03-25T00:43:17;100648.69;;;4.14;100.00
9421;BME280;4749;51.398;5.466;2024-03-25T00:45:43;100640.84;;;4.13;100.00
9421;BME280;4749;51.398;5.466;2024-03-25T00:48:10;100645.19;;;4.12;100.00
9421;BME280;4749;51.398;5.466;2024-03-25T00:50:38;100646.06;;;4.13;100.00
9421;BME280;4749;51.398;5.466;2024-03-25T00:53:04;100646.88;;;4.12;100.00
9421;BME280;4749;51.398;5.466;2024-03-25T00:55:31;100651.16;;;4.10;100.00
9421;BME280;4749;51.398;5.466;2024-03-25T00:57:57;100650.28;;;4.09;100.00
9421;BME280;4749;51.398;5.466;2024-03-25T01:00:23;100658.06;;;4.08;100.00
9421;BME280;4749;51.398;5.466;2024-03-25T01:02:49;100660.66;;;4.08;100.00
9421;BME280;4749;51.398;5.466;2024-03-25T01:05:15;100656.31;;;4.07;100.00
9421;BME280;4749;51.398;5.466;2024-03-25T01:07:41;100650.25;;;4.08;100.00
9421;BME280;4749;51.398;5.466;2024-03-25T01:10:08;100658.06;;;4.08;100.00
9421;BME280;4749;51.398;5.466;2024-03-25T01:12:34;100654.56;;;4.06;100.00
9421;BME280;4749;51.398;5.466;2024-03-25T01:15:00;100654.56;;;4.06;100.00
9421;BME280;4749;51.398;5.466;2024-03-25T01:17:28;100651.03;;;4.04;100.00
9421;BME280;4749;51.398;5.466;2024-03-25T01:19:54;100656.16;;;4.02;100.00
9421;BME280;4749;51.398;5.466;2024-03-25T01:22:20;100657.88;;;4.02;100.00
9421;BME280;4749;51.398;5.466;2024-03-25T01:24:46;100655.25;;;4.00;100.00
9421;BME280;4749;51.398;5.466;2024-03-25T01:27:12;100670.84;;;3.99;100.00
9421;BME280;4749;51.398;5.466;2024-03-25T01:29:38;100669.94;;;3.98;100.00
9421;BME280;4749;51.398;5.466;2024-03-25T01:32:05;100657.75;;;3.95;100.00
9421;BME280;4749;51.398;5.466;2024-03-25T01:34:31;100662.03;;;3.95;100.00
9421;BME280;4749;51.398;5.466;2024-03-25T01:36:57;100656.81;;;3.93;100.00
9421;BME280;4749;51.398;5.466;2024-03-25T01:39:23;100653.34;;;3.93;100.00
9421;BME280;4749;51.398;5.466;2024-03-25T01:41:53;100650.69;;;3.91;100.00
9421;BME280;4749;51.398;5.466;2024-03-25T01:44:19;100652.41;;;3.91;100.00
9421;BME280;4749;51.398;5.466;2024-03-25T01:46:46;100648.06;;;3.90;100.00
9421;BME280;4749;51.398;5.466;2024-03-25T01:49:12;100647.16;;;3.88;100.00
9421;BME280;4749;51.398;5.466;2024-03-25T01:51:40;100643.59;;;3.86;100.00
9421;BME280;4749;51.398;5.466;2024-03-25T01:54:08;100646.16;;;3.84;100.00
9421;BME280;4749;51.398;5.466;2024-03-25T01:56:35;100646.16;;;3.84;100.00
9421;BME280;4749;51.398;5.466;2024-03-25T01:59:03;100645.28;;;3.84;100.00
9421;BME280;4749;51.398;5.466;2024-03-25T02:01:29;100653.06;;;3.82;100.00
9421;BME280;4749;51.398;5.466;2024-03-25T02:03:56;100648.66;;;3.80;100.00
9421;BME280;4749;51.398;5.466;2024-03-25T02:06:24;100656.41;;;3.78;100.00
9421;BME280;4749;51.398;5.466;2024-03-25T02:08:53;100655.47;;;3.76;100.00
9421;BME280;4749;51.398;5.466;2024-03-25T02:11:21;100656.28;;;3.74;100.00
9421;BME280;4749;51.398;5.466;2024-03-25T02:13:50;100662.34;;;3.73;100.00
9421;BME280;4749;51.398;5.466;2024-03-25T02:16:17;100660.56;;;3.72;100.00
9421;BME280;4749;51.398;5.466;2024-03-25T02:18:44;100660.53;;;3.70;100.00
9421;BME280;4749;51.398;5.466;2024-03-25T02:21:10;100650.94;;;3.69;100.00
9421;BME280;4749;51.398;5.466;2024-03-25T02:23:39;100659.63;;;3.70;100.00
9421;BME280;4749;51.398;5.466;2024-03-25T02:26:05;100656.09;;;3.67;100.00
9421;BME280;4749;51.398;5.466;2024-03-25T02:28:31;100656.09;;;3.67;100.00
9421;BME280;4749;51.398;5.466;2024-03-25T02:30:57;100650.84;;;3.64;100.00
9421;BME280;4749;51.398;5.466;2024-03-25T02:33:23;100643.00;;;3.63;100.00
9421;BME280;4749;51.398;5.466;2024-03-25T02:35:49;100634.25;;;3.61;100.00
9421;BME280;4749;51.398;5.466;2024-03-25T02:38:16;100641.19;;;3.60;100.00
9421;BME280;4749;51.398;5.466;2024-03-25T02:40:44;100633.28;;;3.56;100.00
9421;BME280;4749;51.398;5.466;2024-03-25T02:43:11;100641.03;;;3.54;100.00
9421;BME280;4749;51.398;5.466;2024-03-25T02:45:37;100637.47;;;3.52;100.00
9421;BME280;4749;51.398;5.466;2024-03-25T02:48:04;100633.94;;;3.49;100.00
9421;BME280;4749;51.398;5.466;2024-03-25T02:50:31;100631.25;;;3.46;100.00
9421;BME280;4749;51.398;5.466;2024-03-25T02:52:57;100627.69;;;3.42;100.00
9421;BME280;4749;51.398;5.466;2024-03-25T02:55:23;100625.84;;;3.38;100.00
9421;BME280;4749;51.398;5.466;2024-03-25T02:57:49;100617.09;;;3.36;100.00
9421;BME280;4749;51.398;5.466;2024-03-25T03:00:16;100624.81;;;3.33;100.00
9421;BME280;4749;51.398;5.466;2024-03-25T03:02:42;100619.56;;;3.30;100.00
9421;BME280;4749;51.398;5.466;2024-03-25T03:05:08;100615.13;;;3.27;100.00
9421;BME280;4749;51.398;5.466;2024-03-25T03:07:34;100614.13;;;3.22;100.00
9421;BME280;4749;51.398;5.466;2024-03-25T03:10:01;100620.16;;;3.21;100.00
9421;BME280;4749;51.398;5.466;2024-03-25T03:12:27;100614.81;;;3.17;100.00
9421;BME280;4749;51.398;5.466;2024-03-25T03:14:53;100624.31;;;3.15;100.00
9421;BME280;4749;51.398;5.466;2024-03-25T03:17:19;100614.72;;;3.12;100.00
9421;BME280;4749;51.398;5.466;2024-03-25T03:19:45;100615.44;;;3.08;100.00
9421;BME280;4749;51.398;5.466;2024-03-25T03:22:12;100611.06;;;3.05;100.00
9421;BME280;4749;51.398;5.466;2024-03-25T03:24:38;100613.53;;;3.02;100.00
9421;BME280;4749;51.398;5.466;2024-03-25T03:27:04;100609.16;;;3.00;100.00
9421;BME280;4749;51.398;5.466;2024-03-25T03:29:30;100605.59;;;2.96;100.00
9421;BME280;4749;51.398;5.466;2024-03-25T03:31:57;100614.22;;;2.95;100.00
9421;BME280;4749;51.398;5.466;2024-03-25T03:34:24;100607.19;;;2.93;100.00
9421;BME280;4749;51.398;5.466;2024-03-25T03:36:50;100610.63;;;2.92;100.00
9421;BME280;4749;51.398;5.466;2024-03-25T03:39:16;100617.53;;;2.91;100.00
9421;BME280;4749;51.398;5.466;2024-03-25T03:41:43;100617.47;;;2.88;100.00
9421;BME280;4749;51.398;5.466;2024-03-25T03:44:09;100622.63;;;2.87;100.00
9421;BME280;4749;51.398;5.466;2024-03-25T03:46:36;100616.53;;;2.86;100.00
9421;BME280;4749;51.398;5.466;2024-03-25T03:49:02;100619.19;;;2.88;100.00
9421;BME280;4749;51.398;5.466;2024-03-25T03:51:28;100616.59;;;2.88;100.00
9421;BME280;4749;51.398;5.466;2024-03-25T03:53:56;100618.31;;;2.87;100.00
9421;BME280;4749;51.398;5.466;2024-03-25T03:56:22;100612.22;;;2.87;100.00
9421;BME280;4749;51.398;5.466;2024-03-25T03:58:48;100613.03;;;2.86;100.00
9421;BME280;4749;51.398;5.466;2024-03-25T04:01:16;100607.81;;;2.84;100.00
9421;BME280;4749;51.398;5.466;2024-03-25T04:03:43;100609.47;;;2.82;100.00
9421;BME280;4749;51.398;5.466;2024-03-25T04:06:11;100606.84;;;2.80;100.00
9421;BME280;4749;51.398;5.466;2024-03-25T04:08:39;100596.41;;;2.79;100.00
9421;BME280;4749;51.398;5.466;2024-03-25T04:11:06;100599.84;;;2.78;100.00
9421;BME280;4749;51.398;5.466;2024-03-25T04:13:35;100600.63;;;2.75;100.00
9421;BME280;4749;51.398;5.466;2024-03-25T04:16:06;100609.25;;;2.74;100.00
9421;BME280;4749;51.398;5.466;2024-03-25T04:18:33;100606.56;;;2.71;100.00
9421;BME280;4749;51.398;5.466;2024-03-25T04:20:59;100606.53;;;2.70;100.00
9421;BME280;4749;51.398;5.466;2024-03-25T04:23:26;100605.56;;;2.68;100.00
9421;BME280;4749;51.398;5.466;2024-03-25T04:25:52;100593.41;;;2.65;100.00
9421;BME280;4749;51.398;5.466;2024-03-25T04:28:19;100595.06;;;2.63;100.00
9421;BME280;4749;51.398;5.466;2024-03-25T04:30:53;100601.09;;;2.62;100.00
9421;BME280;4749;51.398;5.466;2024-03-25T04:33:20;100597.56;;;2.60;100.00
9421;BME280;4749;51.398;5.466;2024-03-25T04:35:47;100600.06;;;2.57;100.00
9421;BME280;4749;51.398;5.466;2024-03-25T04:38:16;100599.13;;;2.55;100.00
9421;BME280;4749;51.398;5.466;2024-03-25T04:40:43;100604.34;;;2.55;100.00
9421;BME280;4749;51.398;5.466;2024-03-25T04:43:10;100600.81;;;2.53;100.00
9421;BME280;4749;51.398;5.466;2024-03-25T04:45:36;100602.53;;;2.52;100.00
9421;BME280;4749;51.398;5.466;2024-03-25T04:48:03;100598.09;;;2.50;100.00
9421;BME280;4749;51.398;5.466;2024-03-25T04:50:30;100604.97;;;2.48;100.00
9421;BME280;4749;51.398;5.466;2024-03-25T04:52:57;100605.84;;;2.48;100.00
9421;BME280;4749;51.398;5.466;2024-03-25T04:55:23;100605.81;;;2.47;100.00
9421;BME280;4749;51.398;5.466;2024-03-25T04:57:49;100606.59;;;2.44;100.00
9421;BME280;4749;51.398;5.466;2024-03-25T05:00:16;100606.59;;;2.44;100.00
9421;BME280;4749;51.398;5.466;2024-03-25T05:02:43;100604.81;;;2.43;100.00
9421;BME280;4749;51.398;5.466;2024-03-25T05:05:09;100605.66;;;2.42;100.00
9421;BME280;4749;51.398;5.466;2024-03-25T05:07:36;100610.78;;;2.41;100.00
9421;BME280;4749;51.398;5.466;2024-03-25T05:10:02;100603.84;;;2.40;100.00
9421;BME280;4749;51.398;5.466;2024-03-25T05:12:28;100602.09;;;2.39;100.00
9421;BME280;4749;51.398;5.466;2024-03-25T05:14:56;100605.53;;;2.38;100.00
9421;BME280;4749;51.398;5.466;2024-03-25T05:17:22;100602.03;;;2.37;100.00
9421;BME280;4749;51.398;5.466;2024-03-25T05:19:49;100607.19;;;2.36;100.00
9421;BME280;4749;51.398;5.466;2024-03-25T05:22:15;100601.09;;;2.35;100.00
9421;BME280;4749;51.398;5.466;2024-03-25T05:24:41;100612.38;;;2.36;100.00
9421;BME280;4749;51.398;5.466;2024-03-25T05:27:08;100608.88;;;2.35;100.00
9421;BME280;4749;51.398;5.466;2024-03-25T05:29:34;100611.47;;;2.35;100.00
9421;BME280;4749;51.398;5.466;2024-03-25T05:32:01;100608.88;;;2.35;100.00
9421;BME280;4749;51.398;5.466;2024-03-25T05:34:28;100616.72;;;2.37;100.00
9421;BME280;4749;51.398;5.466;2024-03-25T05:36:55;100622.81;;;2.37;100.00
9421;BME280;4749;51.398;5.466;2024-03-25T05:39:21;100622.84;;;2.39;100.00
9421;BME280;4749;51.398;5.466;2024-03-25T05:41:47;100623.75;;;2.41;100.00
9421;BME280;4749;51.398;5.466;2024-03-25T05:44:14;100623.03;;;2.45;100.00
9421;BME280;4749;51.398;5.466;2024-03-25T05:46:40;100619.69;;;2.49;100.00
9421;BME280;4749;51.398;5.466;2024-03-25T05:49:06;100620.69;;;2.52;100.00
9421;BME280;4749;51.398;5.466;2024-03-25T05:51:33;100610.44;;;2.57;100.00
9421;BME280;4749;51.398;5.466;2024-03-25T05:54:00;100617.44;;;2.60;100.00
9421;BME280;4749;51.398;5.466;2024-03-25T05:56:27;100611.56;;;2.65;100.00
9421;BME280;4749;51.398;5.466;2024-03-25T05:58:57;100612.59;;;2.70;100.00
9421;BME280;4749;51.398;5.466;2024-03-25T06:01:23;100606.66;;;2.74;100.00
9421;BME280;4749;51.398;5.466;2024-03-25T06:03:50;100616.31;;;2.78;100.00
9421;BME280;4749;51.398;5.466;2024-03-25T06:06:17;100601.69;;;2.82;100.00
9421;BME280;4749;51.398;5.466;2024-03-25T06:08:43;100600.13;;;2.87;100.00
9421;BME280;4749;51.398;5.466;2024-03-25T06:11:09;100602.84;;;2.92;100.00
9421;BME280;4749;51.398;5.466;2024-03-25T06:13:36;100603.00;;;2.96;100.00
9421;BME280;4749;51.398;5.466;2024-03-25T06:16:02;100606.59;;;3.01;100.00
9421;BME280;4749;51.398;5.466;2024-03-25T06:18:29;100601.56;;;3.07;100.00
9421;BME280;4749;51.398;5.466;2024-03-25T06:20:55;100603.47;;;3.13;100.00
9421;BME280;4749;51.398;5.466;2024-03-25T06:23:27;100601.09;;;3.21;100.00
9421;BME280;4749;51.398;5.466;2024-03-25T06:25:55;100596.06;;;3.27;100.00
9421;BME280;4749;51.398;5.466;2024-03-25T06:28:22;100598.03;;;3.35;100.00
9421;BME280;4749;51.398;5.466;2024-03-25T06:30:50;100598.25;;;3.43;100.00
9421;BME280;4749;51.398;5.466;2024-03-25T06:33:36;100589.78;;;3.50;100.00
9421;BME280;4749;51.398;5.466;2024-03-25T06:36:21;100591.75;;;3.59;100.00
9421;BME280;4749;51.398;5.466;2024-03-25T06:38:47;100596.31;;;3.67;100.00
9421;BME280;4749;51.398;5.466;2024-03-25T06:41:14;100600.00;;;3.76;100.00
9421;BME280;4749;51.398;5.466;2024-03-25T06:43:40;100595.84;;;3.82;100.00
9421;BME280;4749;51.398;5.466;2024-03-25T06:46:07;100604.69;;;3.89;100.00
9421;BME280;4749;51.398;5.466;2024-03-25T06:48:34;100596.31;;;4.01;100.00
9421;BME280;4749;51.398;5.466;2024-03-25T06:51:03;100600.19;;;4.16;100.00
9421;BME280;4749;51.398;5.466;2024-03-25T06:53:30;100595.50;;;4.38;100.00
9421;BME280;4749;51.398;5.466;2024-03-25T06:55:58;100595.09;;;4.59;100.00
9421;BME280;4749;51.398;5.466;2024-03-25T06:58:26;100582.56;;;4.80;100.00
9421;BME280;4749;51.398;5.466;2024-03-25T07:00:55;100577.84;;;5.03;100.00
9421;BME280;4749;51.398;5.466;2024-03-25T07:03:23;100580.84;;;5.21;100.00
9421;BME280;4749;51.398;5.466;2024-03-25T07:05:51;100575.03;;;5.36;100.00
9421;BME280;4749;51.398;5.466;2024-03-25T07:08:21;100578.75;;;5.47;100.00
9421;BME280;4749;51.398;5.466;2024-03-25T07:10:48;100579.84;;;5.60;100.00
9421;BME280;4749;51.398;5.466;2024-03-25T07:13:14;100577.50;;;5.75;100.00
9421;BME280;4749;51.398;5.466;2024-03-25T07:15:42;100581.19;;;5.88;100.00
9421;BME280;4749;51.398;5.466;2024-03-25T07:18:09;100580.59;;;6.01;100.00
9421;BME280;4749;51.398;5.466;2024-03-25T07:20:39;100574.78;;;6.16;100.00
9421;BME280;4749;51.398;5.466;2024-03-25T07:23:06;100582.00;;;6.34;100.00
9421;BME280;4749;51.398;5.466;2024-03-25T07:25:32;100583.19;;;6.54;100.00
9421;BME280;4749;51.398;5.466;2024-03-25T07:27:58;100584.28;;;6.68;100.00
9421;BME280;4749;51.398;5.466;2024-03-25T07:30:24;100582.75;;;6.84;100.00
9421;BME280;4749;51.398;5.466;2024-03-25T07:32:59;100578.50;;;6.92;100.00
9421;BME280;4749;51.398;5.466;2024-03-25T07:35:25;100586.47;;;7.03;100.00
9421;BME280;4749;51.398;5.466;2024-03-25T07:37:52;100584.91;;;7.16;100.00
9421;BME280;4749;51.398;5.466;2024-03-25T07:40:19;100584.16;;;7.26;100.00
9421;BME280;4749;51.398;5.466;2024-03-25T07:42:46;100582.50;;;7.32;100.00
9421;BME280;4749;51.398;5.466;2024-03-25T07:45:12;100584.34;;;7.41;100.00
9421;BME280;4749;51.398;5.466;2024-03-25T07:47:38;100590.56;;;7.51;100.00
9421;BME280;4749;51.398;5.466;2024-03-25T07:50:05;100588.81;;;7.53;100.00
9421;BME280;4749;51.398;5.466;2024-03-25T07:52:32;100585.44;;;7.61;100.00
9421;BME280;4749;51.398;5.466;2024-03-25T07:54:58;100587.25;;;7.70;100.00
9421;BME280;4749;51.398;5.466;2024-03-25T07:57:24;100588.22;;;7.78;100.00
9421;BME280;4749;51.398;5.466;2024-03-25T07:59:50;100592.69;;;7.90;100.00
9421;BME280;4749;51.398;5.466;2024-03-25T08:02:16;100588.44;;;8.01;100.00
9421;BME280;4749;51.398;5.466;2024-03-25T08:04:42;100591.16;;;8.12;100.00
9421;BME280;4749;51.398;5.466;2024-03-25T08:07:09;100584.22;;;8.18;100.00
9421;BME280;4749;51.398;5.466;2024-03-25T08:09:35;100586.00;;;8.23;100.00
9421;BME280;4749;51.398;5.466;2024-03-25T08:12:01;100574.66;;;8.24;100.00
9421;BME280;4749;51.398;5.466;2024-03-25T08:14:27;100580.81;;;8.29;100.00
9421;BME280;4749;51.398;5.466;2024-03-25T08:16:53;100577.38;;;8.33;100.00
9421;BME280;4749;51.398;5.466;2024-03-25T08:19:20;100584.41;;;8.35;100.00
9421;BME280;4749;51.398;5.466;2024-03-25T08:21:46;100587.91;;;8.37;100.00
9421;BME280;4749;51.398;5.466;2024-03-25T08:24:14;100582.66;;;8.40;100.00
9421;BME280;4749;51.398;5.466;2024-03-25T08:26:41;100583.53;;;8.36;100.00
9421;BME280;4749;51.398;5.466;2024-03-25T08:29:07;100582.66;;;8.37;100.00
9421;BME280;4749;51.398;5.466;2024-03-25T08:31:34;100581.84;;;8.41;100.00
9421;BME280;4749;51.398;5.466;2024-03-25T08:34:00;100580.16;;;8.51;100.00
9421;BME280;4749;51.398;5.466;2024-03-25T08:36:26;100581.09;;;8.61;100.00
9421;BME280;4749;51.398;5.466;2024-03-25T08:38:52;100588.94;;;8.62;100.00
9421;BME280;4749;51.398;5.466;2024-03-25T08:41:18;100582.00;;;8.72;100.00
9421;BME280;4749;51.398;5.466;2024-03-25T08:43:45;100579.47;;;8.86;100.00
9421;BME280;4749;51.398;5.466;2024-03-25T08:46:11;100583.03;;;8.92;100.00
9421;BME280;4749;51.398;5.466;2024-03-25T08:48:37;100579.53;;;8.99;100.00
9421;BME280;4749;51.398;5.466;2024-03-25T08:51:03;100574.34;;;9.09;100.00
9421;BME280;4749;51.398;5.466;2024-03-25T08:53:29;100577.84;;;9.12;100.00
9421;BME280;4749;51.398;5.466;2024-03-25T08:55:56;100570.88;;;9.13;100.00
9421;BME280;4749;51.398;5.466;2024-03-25T08:58:25;100579.56;;;9.06;100.00
9421;BME280;4749;51.398;5.466;2024-03-25T09:00:51;100571.75;;;9.09;100.00
9421;BME280;4749;51.398;5.466;2024-03-25T09:03:17;100569.13;;;9.09;100.00
9421;BME280;4749;51.398;5.466;2024-03-25T09:05:43;100577.06;;;9.28;100.00
9421;BME280;4749;51.398;5.466;2024-03-25T09:08:10;100572.72;;;9.41;100.00
9421;BME280;4749;51.398;5.466;2024-03-25T09:10:39;100567.50;;;9.53;100.00
9421;BME280;4749;51.398;5.466;2024-03-25T09:13:24;100560.50;;;9.55;100.00
9421;BME280;4749;51.398;5.466;2024-03-25T09:15:50;100557.03;;;9.59;100.00
9421;BME280;4749;51.398;5.466;2024-03-25T09:18:17;100559.66;;;9.66;100.00
9421;BME280;4749;51.398;5.466;2024-03-25T09:20:44;100550.06;;;9.68;100.00
9421;BME280;4749;51.398;5.466;2024-03-25T09:23:11;100540.44;;;9.76;100.00
9421;BME280;4749;51.398;5.466;2024-03-25T09:25:38;100538.69;;;9.81;100.00
9421;BME280;4749;51.398;5.466;2024-03-25T09:28:04;100537.81;;;9.80;100.00
9421;BME280;4749;51.398;5.466;2024-03-25T09:30:32;100540.44;;;9.91;100.00
9421;BME280;4749;51.398;5.466;2024-03-25T09:33:00;100526.44;;;10.01;100.00
9421;BME280;4749;51.398;5.466;2024-03-25T09:35:26;100529.09;;;10.09;100.00
9421;BME280;4749;51.398;5.466;2024-03-25T09:37:52;100519.44;;;10.11;100.00
9421;BME280;4749;51.398;5.466;2024-03-25T09:40:20;100517.69;;;10.01;100.00
9421;BME280;4749;51.398;5.466;2024-03-25T09:42:56;100517.69;;;10.11;100.00
9421;BME280;4749;51.398;5.466;2024-03-25T09:45:25;100506.31;;;10.25;100.00
9421;BME280;4749;51.398;5.466;2024-03-25T09:47:55;100500.16;;;10.38;100.00
9421;BME280;4749;51.398;5.466;2024-03-25T09:50:22;100503.66;;;10.40;100.00
9421;BME280;4749;51.398;5.466;2024-03-25T09:52:49;100494.84;;;10.59;100.00
9421;BME280;4749;51.398;5.466;2024-03-25T09:55:16;100492.22;;;10.56;100.00
9421;BME280;4749;51.398;5.466;2024-03-25T09:57:44;100485.16;;;10.72;100.00
9421;BME280;4749;51.398;5.466;2024-03-25T10:00:11;100491.25;;;10.88;100.00
9421;BME280;4749;51.398;5.466;2024-03-25T10:02:40;100490.25;;;11.09;100.00
9421;BME280;4749;51.398;5.466;2024-03-25T10:05:07;100486.63;;;11.34;100.00
9421;BME280;4749;51.398;5.466;2024-03-25T10:07:35;100490.88;;;11.55;100.00
9421;BME280;4749;51.398;5.466;2024-03-25T10:10:05;100487.19;;;11.83;100.00
9421;BME280;4749;51.398;5.466;2024-03-25T10:12:32;100481.75;;;12.05;100.00
9421;BME280;4749;51.398;5.466;2024-03-25T10:15:00;100488.63;;;12.17;100.00
9421;BME280;4749;51.398;5.466;2024-03-25T10:17:26;100479.97;;;12.05;100.00
9421;BME280;4749;51.398;5.466;2024-03-25T10:19:55;100480.06;;;11.96;100.00
9421;BME280;4749;51.398;5.466;2024-03-25T10:22:22;100469.47;;;11.99;100.00
9421;BME280;4749;51.398;5.466;2024-03-25T10:24:48;100468.59;;;12.00;100.00
9421;BME280;4749;51.398;5.466;2024-03-25T10:27:22;100474.78;;;11.96;100.00
9421;BME280;4749;51.398;5.466;2024-03-25T10:29:53;100466.56;;;12.30;100.00
9421;BME280;4749;51.398;5.466;2024-03-25T10:32:21;100470.63;;;12.58;100.00
9421;BME280;4749;51.398;5.466;2024-03-25T10:34:50;100471.41;;;12.66;100.00
9421;BME280;4749;51.398;5.466;2024-03-25T10:37:18;100459.09;;;12.70;100.00
9421;BME280;4749;51.398;5.466;2024-03-25T10:39:50;100452.91;;;12.71;100.00
9421;BME280;4749;51.398;5.466;2024-03-25T10:42:21;100449.34;;;12.74;100.00
9421;BME280;4749;51.398;5.466;2024-03-25T10:44:48;100450.09;;;12.86;100.00
9421;BME280;4749;51.398;5.466;2024-03-25T10:47:21;100443.75;;;13.00;100.00
9421;BME280;4749;51.398;5.466;2024-03-25T10:49:59;100446.22;;;13.10;100.00
9421;BME280;4749;51.398;5.466;2024-03-25T10:52:29;100445.31;;;13.14;100.00
9421;BME280;4749;51.398;5.466;2024-03-25T10:54:56;100451.38;;;13.22;100.00
9421;BME280;4749;51.398;5.466;2024-03-25T10:57:23;100450.38;;;13.31;100.00
9421;BME280;4749;51.398;5.466;2024-03-25T10:59:50;100454.06;;;13.21;100.00
9421;BME280;4749;51.398;5.466;2024-03-25T11:02:17;100444.47;;;13.12;100.00
9421;BME280;4749;51.398;5.466;2024-03-25T11:04:44;100444.34;;;13.20;100.00
9421;BME280;4749;51.398;5.466;2024-03-25T11:07:12;100449.50;;;13.31;100.00
9421;BME280;4749;51.398;5.466;2024-03-25T11:09:40;100433.50;;;13.41;100.00
9421;BME280;4749;51.398;5.466;2024-03-25T11:12:10;100445.25;;;13.20;100.00
9421;BME280;4749;51.398;5.466;2024-03-25T11:14:36;100438.38;;;13.06;100.00
9421;BME280;4749;51.398;5.466;2024-03-25T11:17:02;100436.78;;;12.95;100.00
9421;BME280;4749;51.398;5.466;2024-03-25T11:19:29;100436.50;;;13.14;100.00
9421;BME280;4749;51.398;5.466;2024-03-25T11:22:10;100439.06;;;13.20;100.00
9421;BME280;4749;51.398;5.466;2024-03-25T11:24:37;100427.72;;;13.13;100.00
9421;BME280;4749;51.398;5.466;2024-03-25T11:27:07;100430.13;;;13.32;100.00
9421;BME280;4749;51.398;5.466;2024-03-25T11:29:35;100431.44;;;13.59;100.00
9421;BME280;4749;51.398;5.466;2024-03-25T11:32:05;100424.06;;;13.80;100.00
9421;BME280;4749;51.398;5.466;2024-03-25T11:34:31;100416.19;;;13.76;100.00
9421;BME280;4749;51.398;5.466;2024-03-25T11:36:58;100408.25;;;13.77;100.00
9421;BME280;4749;51.398;5.466;2024-03-25T11:39:25;100413.66;;;13.71;100.00
9421;BME280;4749;51.398;5.466;2024-03-25T11:41:53;100417.28;;;13.64;100.00
9421;BME280;4749;51.398;5.466;2024-03-25T11:44:19;100418.16;;;13.65;100.00
9421;BME280;4749;51.398;5.466;2024-03-25T11:46:51;100407.50;;;13.71;100.00
9421;BME280;4749;51.398;5.466;2024-03-25T11:49:21;100397.19;;;14.05;100.00
9421;BME280;4749;51.398;5.466;2024-03-25T11:51:47;100386.06;;;14.34;100.00
9421;BME280;4749;51.398;5.466;2024-03-25T11:54:14;100385.66;;;14.55;100.00
9421;BME280;4749;51.398;5.466;2024-03-25T11:56:41;100379.91;;;14.77;100.00
9421;BME280;4749;51.398;5.466;2024-03-25T11:59:09;100387.38;;;14.98;100.00
9421;BME280;4749;51.398;5.466;2024-03-25T12:01:37;100382.13;;;14.97;100.00
9421;BME280;4749;51.398;5.466;2024-03-25T12:04:12;100375.66;;;15.08;100.00
9421;BME280;4749;51.398;5.466;2024-03-25T12:06:38;100366.72;;;15.12;100.00
9421;BME280;4749;51.398;5.466;2024-03-25T12:09:04;100367.78;;;15.05;96.87
9421;BME280;4749;51.398;5.466;2024-03-25T12:11:54;100347.19;;;15.18;96.76
9421;BME280;4749;51.398;5.466;2024-03-25T12:14:25;100336.84;;;15.43;94.86
9421;BME280;4749;51.398;5.466;2024-03-25T12:16:56;100339.03;;;15.63;92.66
9421;BME280;4749;51.398;5.466;2024-03-25T12:19:25;100331.59;;;15.77;89.56
9421;BME280;4749;51.398;5.466;2024-03-25T12:21:59;100330.56;;;15.83;87.23
9421;BME280;4749;51.398;5.466;2024-03-25T12:24:26;100329.84;;;15.76;85.73
9421;BME280;4749;51.398;5.466;2024-03-25T12:26:53;100333.56;;;15.69;85.59
9421;BME280;4749;51.398;5.466;2024-03-25T12:29:19;100331.06;;;15.64;84.37
9421;BME280;4749;51.398;5.466;2024-03-25T12:31:56;100330.25;;;15.61;83.26
9421;BME280;4749;51.398;5.466;2024-03-25T12:34:25;100323.19;;;15.60;83.46
9421;BME280;4749;51.398;5.466;2024-03-25T12:36:51;100318.72;;;15.62;83.43
9421;BME280;4749;51.398;5.466;2024-03-25T12:39:18;100311.75;;;15.58;82.19
9421;BME280;4749;51.398;5.466;2024-03-25T12:41:47;100304.31;;;15.38;81.43
9421;BME280;4749;51.398;5.466;2024-03-25T12:44:13;100301.91;;;15.29;81.58
9421;BME280;4749;51.398;5.466;2024-03-25T12:46:39;100307.38;;;15.23;80.91
9421;BME280;4749;51.398;5.466;2024-03-25T12:49:06;100315.41;;;15.18;80.58
9421;BME280;4749;51.398;5.466;2024-03-25T12:51:32;100315.53;;;15.13;79.53
9421;BME280;4749;51.398;5.466;2024-03-25T12:53:58;100308.69;;;15.03;78.60
9421;BME280;4749;51.398;5.466;2024-03-25T12:56:25;100295.19;;;14.78;78.08
9421;BME280;4749;51.398;5.466;2024-03-25T12:58:51;100290.25;;;14.63;78.36
9421;BME280;4749;51.398;5.466;2024-03-25T13:01:17;100291.69;;;14.36;78.55
9421;BME280;4749;51.398;5.466;2024-03-25T13:03:44;100292.03;;;14.19;78.72
9421;BME280;4749;51.398;5.466;2024-03-25T13:06:10;100284.16;;;14.18;78.68
9421;BME280;4749;51.398;5.466;2024-03-25T13:08:37;100272.00;;;14.09;78.30
9421;BME280;4749;51.398;5.466;2024-03-25T13:11:04;100273.84;;;14.05;77.90